sensor_id;sensor_type;location;lat;lon;timestamp;P1;durP1;ratioP1;P2;durP2;ratioP2
12925;SDS011;6529;50.566;9.774;2024-01-30T00:01:00;8.33;;;4.93;;
12925;SDS011;6529;50.566;9.774;2024-01-30T00:03:25;6.50;;;4.93;;
12925;SDS011;6529;50.566;9.774;2024-01-30T00:05:51;6.43;;;5.00;;
12925;SDS011;6529;50.566;9.774;2024-01-30T00:08:17;6.10;;;4.57;;
12925;SDS011;6529;50.566;9.774;2024-01-30T00:10:42;6.57;;;4.90;;
12925;SDS011;6529;50.566;9.774;2024-01-30T00:13:08;6.53;;;5.03;;
12925;SDS011;6529;50.566;9.774;2024-01-30T00:15:34;7.37;;;4.97;;
12925;SDS011;6529;50.566;9.774;2024-01-30T00:17:59;7.50;;;4.73;;
12925;SDS011;6529;50.566;9.774;2024-01-30T00:20:25;5.80;;;4.53;;
12925;SDS011;6529;50.566;9.774;2024-01-30T00:22:50;6.13;;;4.63;;
12925;SDS011;6529;50.566;9.774;2024-01-30T00:25:16;6.83;;;4.33;;
12925;SDS011;6529;50.566;9.774;2024-01-30T00:27:41;6.50;;;5.07;;
12925;SDS011;6529;50.566;9.774;2024-01-30T00:30:07;5.97;;;4.20;;
12925;SDS011;6529;50.566;9.774;2024-01-30T00:32:33;7.30;;;4.40;;
12925;SDS011;6529;50.566;9.774;2024-01-30T00:34:59;5.43;;;4.27;;
12925;SDS011;6529;50.566;9.774;2024-01-30T00:37:24;5.60;;;4.43;;
12925;SDS011;6529;50.566;9.774;2024-01-30T00:39:50;5.13;;;4.30;;
12925;SDS011;6529;50.566;9.774;2024-01-30T00:42:16;6.67;;;4.50;;
12925;SDS011;6529;50.566;9.774;2024-01-30T00:44:41;5.43;;;4.33;;
12925;SDS011;6529;50.566;9.774;2024-01-30T00:47:07;8.13;;;4.77;;
12925;SDS011;6529;50.566;9.774;2024-01-30T00:49:32;5.43;;;4.07;;
12925;SDS011;6529;50.566;9.774;2024-01-30T00:51:58;6.87;;;4.87;;
12925;SDS011;6529;50.566;9.774;2024-01-30T00:54:23;5.60;;;4.40;;
12925;SDS011;6529;50.566;9.774;2024-01-30T00:56:49;5.70;;;4.07;;
12925;SDS011;6529;50.566;9.774;2024-01-30T00:59:14;5.40;;;4.33;;
12925;SDS011;6529;50.566;9.774;2024-01-30T01:01:40;6.57;;;4.43;;
12925;SDS011;6529;50.566;9.774;2024-01-30T01:04:05;6.80;;;4.50;;
12925;SDS011;6529;50.566;9.774;2024-01-30T01:06:32;5.90;;;4.70;;
12925;SDS011;6529;50.566;9.774;2024-01-30T01:08:57;6.00;;;4.30;;
12925;SDS011;6529;50.566;9.774;2024-01-30T01:11:23;6.93;;;4.57;;
12925;SDS011;6529;50.566;9.774;2024-01-30T01:13:48;7.07;;;4.40;;
12925;SDS011;6529;50.566;9.774;2024-01-30T01:16:14;5.37;;;4.33;;
12925;SDS011;6529;50.566;9.774;2024-01-30T01:18:40;7.40;;;4.40;;
12925;SDS011;6529;50.566;9.774;2024-01-30T01:21:05;5.30;;;4.53;;
12925;SDS011;6529;50.566;9.774;2024-01-30T01:23:31;7.23;;;4.23;;
12925;SDS011;6529;50.566;9.774;2024-01-30T01:25:56;5.33;;;4.10;;
12925;SDS011;6529;50.566;9.774;2024-01-30T01:28:24;5.43;;;4.20;;
12925;SDS011;6529;50.566;9.774;2024-01-30T01:30:50;5.37;;;4.20;;
12925;SDS011;6529;50.566;9.774;2024-01-30T01:33:16;5.57;;;3.87;;
12925;SDS011;6529;50.566;9.774;2024-01-30T01:35:42;5.57;;;4.33;;
12925;SDS011;6529;50.566;9.774;2024-01-30T01:38:08;5.43;;;4.17;;
12925;SDS011;6529;50.566;9.774;2024-01-30T01:40:33;5.97;;;4.60;;
12925;SDS011;6529;50.566;9.774;2024-01-30T01:43:02;7.80;;;5.33;;
12925;SDS011;6529;50.566;9.774;2024-01-30T01:45:29;5.00;;;4.27;;
12925;SDS011;6529;50.566;9.774;2024-01-30T01:47:54;4.73;;;4.03;;
12925;SDS011;6529;50.566;9.774;2024-01-30T01:50:20;5.30;;;4.30;;
12925;SDS011;6529;50.566;9.774;2024-01-30T01:52:50;5.63;;;4.17;;
12925;SDS011;6529;50.566;9.774;2024-01-30T01:55:16;6.27;;;4.43;;
12925;SDS011;6529;50.566;9.774;2024-01-30T01:57:43;7.20;;;4.83;;
12925;SDS011;6529;50.566;9.774;2024-01-30T02:00:10;7.93;;;5.20;;
12925;SDS011;6529;50.566;9.774;2024-01-30T02:02:36;6.80;;;4.63;;
12925;SDS011;6529;50.566;9.774;2024-01-30T02:05:04;5.13;;;4.00;;
12925;SDS011;6529;50.566;9.774;2024-01-30T02:07:29;5.50;;;3.83;;
12925;SDS011;6529;50.566;9.774;2024-01-30T02:09:55;5.83;;;4.40;;
12925;SDS011;6529;50.566;9.774;2024-01-30T02:12:21;6.30;;;4.30;;
12925;SDS011;6529;50.566;9.774;2024-01-30T02:14:47;5.47;;;4.30;;
12925;SDS011;6529;50.566;9.774;2024-01-30T02:17:13;4.93;;;3.90;;
12925;SDS011;6529;50.566;9.774;2024-01-30T02:19:40;5.80;;;4.17;;
12925;SDS011;6529;50.566;9.774;2024-01-30T02:22:06;5.73;;;4.40;;
12925;SDS011;6529;50.566;9.774;2024-01-30T02:24:32;4.70;;;3.87;;
12925;SDS011;6529;50.566;9.774;2024-01-30T02:26:57;6.10;;;4.50;;
12925;SDS011;6529;50.566;9.774;2024-01-30T02:29:23;7.43;;;4.67;;
12925;SDS011;6529;50.566;9.774;2024-01-30T02:31:49;6.23;;;4.97;;
12925;SDS011;6529;50.566;9.774;2024-01-30T02:34:14;6.23;;;4.23;;
12925;SDS011;6529;50.566;9.774;2024-01-30T02:36:43;5.43;;;4.40;;
12925;SDS011;6529;50.566;9.774;2024-01-30T02:39:09;6.47;;;4.33;;
12925;SDS011;6529;50.566;9.774;2024-01-30T02:41:37;8.17;;;4.77;;
12925;SDS011;6529;50.566;9.774;2024-01-30T02:44:15;5.27;;;3.90;;
12925;SDS011;6529;50.566;9.774;2024-01-30T02:46:40;5.63;;;4.33;;
12925;SDS011;6529;50.566;9.774;2024-01-30T02:49:06;5.87;;;4.60;;
12925;SDS011;6529;50.566;9.774;2024-01-30T02:51:32;6.83;;;4.77;;
12925;SDS011;6529;50.566;9.774;2024-01-30T02:53:57;6.87;;;4.43;;
12925;SDS011;6529;50.566;9.774;2024-01-30T02:56:23;6.07;;;4.50;;
12925;SDS011;6529;50.566;9.774;2024-01-30T02:58:48;6.87;;;4.60;;
12925;SDS011;6529;50.566;9.774;2024-01-30T03:01:14;7.17;;;4.80;;
12925;SDS011;6529;50.566;9.774;2024-01-30T03:03:39;6.63;;;4.70;;
12925;SDS011;6529;50.566;9.774;2024-01-30T03:06:05;5.63;;;4.47;;
12925;SDS011;6529;50.566;9.774;2024-01-30T03:08:31;7.23;;;4.33;;
12925;SDS011;6529;50.566;9.774;2024-01-30T03:10:56;6.47;;;4.60;;
12925;SDS011;6529;50.566;9.774;2024-01-30T03:13:22;8.10;;;5.07;;
12925;SDS011;6529;50.566;9.774;2024-01-30T03:15:50;6.70;;;4.73;;
12925;SDS011;6529;50.566;9.774;2024-01-30T03:18:15;6.27;;;4.60;;
12925;SDS011;6529;50.566;9.774;2024-01-30T03:20:41;9.30;;;5.10;;
12925;SDS011;6529;50.566;9.774;2024-01-30T03:23:06;8.03;;;5.10;;
12925;SDS011;6529;50.566;9.774;2024-01-30T03:25:32;7.00;;;4.80;;
12925;SDS011;6529;50.566;9.774;2024-01-30T03:27:57;6.57;;;5.00;;
12925;SDS011;6529;50.566;9.774;2024-01-30T03:30:23;7.17;;;4.97;;
12925;SDS011;6529;50.566;9.774;2024-01-30T03:32:49;7.17;;;5.20;;
12925;SDS011;6529;50.566;9.774;2024-01-30T03:35:15;6.40;;;4.80;;
12925;SDS011;6529;50.566;9.774;2024-01-30T03:37:40;5.53;;;4.90;;
12925;SDS011;6529;50.566;9.774;2024-01-30T03:40:06;6.43;;;4.73;;
12925;SDS011;6529;50.566;9.774;2024-01-30T03:42:32;6.83;;;4.63;;
12925;SDS011;6529;50.566;9.774;2024-01-30T03:44:58;6.47;;;4.67;;
12925;SDS011;6529;50.566;9.774;2024-01-30T03:47:23;6.00;;;4.57;;
12925;SDS011;6529;50.566;9.774;2024-01-30T03:49:49;6.07;;;4.70;;
12925;SDS011;6529;50.566;9.774;2024-01-30T03:52:14;5.87;;;4.40;;
12925;SDS011;6529;50.566;9.774;2024-01-30T03:54:40;6.27;;;4.63;;
12925;SDS011;6529;50.566;9.774;2024-01-30T03:57:06;7.10;;;4.83;;
12925;SDS011;6529;50.566;9.774;2024-01-30T03:59:31;6.30;;;4.53;;
12925;SDS011;6529;50.566;9.774;2024-01-30T04:01:57;6.63;;;4.77;;
12925;SDS011;6529;50.566;9.774;2024-01-30T04:04:22;7.40;;;4.53;;
12925;SDS011;6529;50.566;9.774;2024-01-30T04:06:48;6.53;;;4.20;;
12925;SDS011;6529;50.566;9.774;2024-01-30T04:09:14;5.70;;;4.53;;
12925;SDS011;6529;50.566;9.774;2024-01-30T04:11:39;5.10;;;4.20;;
12925;SDS011;6529;50.566;9.774;2024-01-30T04:14:05;5.67;;;4.27;;
12925;SDS011;6529;50.566;9.774;2024-01-30T04:16:31;6.53;;;4.50;;
12925;SDS011;6529;50.566;9.774;2024-01-30T04:18:57;5.97;;;4.70;;
12925;SDS011;6529;50.566;9.774;2024-01-30T04:21:23;6.40;;;4.57;;
12925;SDS011;6529;50.566;9.774;2024-01-30T04:23:50;5.23;;;4.23;;
12925;SDS011;6529;50.566;9.774;2024-01-30T04:26:16;5.97;;;4.40;;
12925;SDS011;6529;50.566;9.774;2024-01-30T04:28:41;6.03;;;4.50;;
12925;SDS011;6529;50.566;9.774;2024-01-30T04:31:08;6.17;;;4.17;;
12925;SDS011;6529;50.566;9.774;2024-01-30T04:33:33;6.20;;;4.10;;
12925;SDS011;6529;50.566;9.774;2024-01-30T04:35:59;4.67;;;3.87;;
12925;SDS011;6529;50.566;9.774;2024-01-30T04:38:24;5.63;;;4.13;;
12925;SDS011;6529;50.566;9.774;2024-01-30T04:40:50;5.13;;;3.87;;
12925;SDS011;6529;50.566;9.774;2024-01-30T04:43:15;5.57;;;4.00;;
12925;SDS011;6529;50.566;9.774;2024-01-30T04:45:41;5.43;;;4.07;;
12925;SDS011;6529;50.566;9.774;2024-01-30T04:48:07;4.97;;;4.03;;
12925;SDS011;6529;50.566;9.774;2024-01-30T04:50:32;6.00;;;4.17;;
12925;SDS011;6529;50.566;9.774;2024-01-30T04:52:58;6.73;;;4.47;;
12925;SDS011;6529;50.566;9.774;2024-01-30T04:55:23;7.90;;;4.73;;
12925;SDS011;6529;50.566;9.774;2024-01-30T04:57:49;5.13;;;3.80;;
12925;SDS011;6529;50.566;9.774;2024-01-30T05:00:15;5.87;;;4.20;;
12925;SDS011;6529;50.566;9.774;2024-01-30T05:02:41;6.63;;;4.20;;
12925;SDS011;6529;50.566;9.774;2024-01-30T05:05:06;6.00;;;4.20;;
12925;SDS011;6529;50.566;9.774;2024-01-30T05:07:32;5.60;;;4.30;;
12925;SDS011;6529;50.566;9.774;2024-01-30T05:09:59;5.63;;;4.03;;
12925;SDS011;6529;50.566;9.774;2024-01-30T05:12:24;5.83;;;4.43;;
12925;SDS011;6529;50.566;9.774;2024-01-30T05:14:50;6.30;;;4.27;;
12925;SDS011;6529;50.566;9.774;2024-01-30T05:17:16;7.03;;;4.60;;
12925;SDS011;6529;50.566;9.774;2024-01-30T05:19:43;5.63;;;4.13;;
12925;SDS011;6529;50.566;9.774;2024-01-30T05:22:09;6.37;;;4.43;;
12925;SDS011;6529;50.566;9.774;2024-01-30T05:24:35;6.00;;;4.30;;
12925;SDS011;6529;50.566;9.774;2024-01-30T05:27:02;7.67;;;4.57;;
12925;SDS011;6529;50.566;9.774;2024-01-30T05:29:28;5.50;;;4.30;;
12925;SDS011;6529;50.566;9.774;2024-01-30T05:31:53;5.00;;;4.20;;
12925;SDS011;6529;50.566;9.774;2024-01-30T05:34:19;6.50;;;4.33;;
12925;SDS011;6529;50.566;9.774;2024-01-30T05:36:44;5.63;;;4.40;;
12925;SDS011;6529;50.566;9.774;2024-01-30T05:39:10;6.57;;;4.83;;
12925;SDS011;6529;50.566;9.774;2024-01-30T05:41:35;5.37;;;4.37;;
12925;SDS011;6529;50.566;9.774;2024-01-30T05:44:01;7.80;;;4.70;;
12925;SDS011;6529;50.566;9.774;2024-01-30T05:46:27;7.30;;;4.37;;
12925;SDS011;6529;50.566;9.774;2024-01-30T05:48:52;5.10;;;3.90;;
12925;SDS011;6529;50.566;9.774;2024-01-30T05:51:18;6.90;;;4.50;;
12925;SDS011;6529;50.566;9.774;2024-01-30T05:53:44;4.97;;;4.00;;
12925;SDS011;6529;50.566;9.774;2024-01-30T05:56:09;5.47;;;4.23;;
12925;SDS011;6529;50.566;9.774;2024-01-30T05:58:35;6.13;;;4.23;;
12925;SDS011;6529;50.566;9.774;2024-01-30T06:01:02;6.93;;;4.43;;
12925;SDS011;6529;50.566;9.774;2024-01-30T06:03:31;5.53;;;4.17;;
12925;SDS011;6529;50.566;9.774;2024-01-30T06:05:57;5.10;;;3.83;;
12925;SDS011;6529;50.566;9.774;2024-01-30T06:08:22;4.93;;;3.67;;
12925;SDS011;6529;50.566;9.774;2024-01-30T06:10:48;4.93;;;4.40;;
12925;SDS011;6529;50.566;9.774;2024-01-30T06:13:14;6.43;;;4.10;;
12925;SDS011;6529;50.566;9.774;2024-01-30T06:15:39;5.70;;;3.73;;
12925;SDS011;6529;50.566;9.774;2024-01-30T06:18:05;4.77;;;3.97;;
12925;SDS011;6529;50.566;9.774;2024-01-30T06:20:31;5.20;;;3.87;;
12925;SDS011;6529;50.566;9.774;2024-01-30T06:22:56;6.23;;;4.60;;
12925;SDS011;6529;50.566;9.774;2024-01-30T06:25:22;6.40;;;4.73;;
12925;SDS011;6529;50.566;9.774;2024-01-30T06:27:47;5.47;;;4.03;;
12925;SDS011;6529;50.566;9.774;2024-01-30T06:30:13;7.90;;;4.30;;
12925;SDS011;6529;50.566;9.774;2024-01-30T06:32:39;5.47;;;4.57;;
12925;SDS011;6529;50.566;9.774;2024-01-30T06:35:05;8.50;;;5.80;;
12925;SDS011;6529;50.566;9.774;2024-01-30T06:37:31;6.73;;;4.43;;
12925;SDS011;6529;50.566;9.774;2024-01-30T06:39:56;4.77;;;4.13;;
12925;SDS011;6529;50.566;9.774;2024-01-30T06:42:22;6.70;;;4.10;;
12925;SDS011;6529;50.566;9.774;2024-01-30T06:44:47;5.30;;;4.53;;
12925;SDS011;6529;50.566;9.774;2024-01-30T06:47:13;5.23;;;4.27;;
12925;SDS011;6529;50.566;9.774;2024-01-30T06:49:38;6.10;;;4.23;;
12925;SDS011;6529;50.566;9.774;2024-01-30T06:52:05;5.47;;;4.50;;
12925;SDS011;6529;50.566;9.774;2024-01-30T06:54:30;7.40;;;4.97;;
12925;SDS011;6529;50.566;9.774;2024-01-30T06:56:57;8.63;;;4.97;;
12925;SDS011;6529;50.566;9.774;2024-01-30T06:59:23;7.93;;;4.90;;
12925;SDS011;6529;50.566;9.774;2024-01-30T07:01:49;6.43;;;5.00;;
12925;SDS011;6529;50.566;9.774;2024-01-30T07:04:14;6.57;;;4.83;;
12925;SDS011;6529;50.566;9.774;2024-01-30T07:06:41;7.10;;;5.00;;
12925;SDS011;6529;50.566;9.774;2024-01-30T07:09:06;6.37;;;4.67;;
12925;SDS011;6529;50.566;9.774;2024-01-30T07:11:33;6.50;;;4.97;;
12925;SDS011;6529;50.566;9.774;2024-01-30T07:13:59;7.23;;;5.30;;
12925;SDS011;6529;50.566;9.774;2024-01-30T07:16:24;6.40;;;4.73;;
12925;SDS011;6529;50.566;9.774;2024-01-30T07:18:50;7.90;;;5.53;;
12925;SDS011;6529;50.566;9.774;2024-01-30T07:21:16;7.97;;;5.90;;
12925;SDS011;6529;50.566;9.774;2024-01-30T07:23:42;6.17;;;5.57;;
12925;SDS011;6529;50.566;9.774;2024-01-30T07:26:08;7.90;;;5.17;;
12925;SDS011;6529;50.566;9.774;2024-01-30T07:28:34;7.23;;;4.87;;
12925;SDS011;6529;50.566;9.774;2024-01-30T07:31:00;7.17;;;5.20;;
12925;SDS011;6529;50.566;9.774;2024-01-30T07:33:26;7.10;;;5.60;;
12925;SDS011;6529;50.566;9.774;2024-01-30T07:35:53;8.27;;;5.77;;
12925;SDS011;6529;50.566;9.774;2024-01-30T07:38:19;7.03;;;5.47;;
12925;SDS011;6529;50.566;9.774;2024-01-30T07:40:45;7.33;;;5.87;;
12925;SDS011;6529;50.566;9.774;2024-01-30T07:43:10;9.33;;;5.80;;
12925;SDS011;6529;50.566;9.774;2024-01-30T07:45:36;6.53;;;5.53;;
12925;SDS011;6529;50.566;9.774;2024-01-30T07:48:04;7.33;;;5.93;;
12925;SDS011;6529;50.566;9.774;2024-01-30T07:50:33;7.67;;;5.53;;
12925;SDS011;6529;50.566;9.774;2024-01-30T07:52:59;7.87;;;5.77;;
12925;SDS011;6529;50.566;9.774;2024-01-30T07:55:25;8.73;;;6.07;;
12925;SDS011;6529;50.566;9.774;2024-01-30T07:57:53;7.77;;;6.17;;
12925;SDS011;6529;50.566;9.774;2024-01-30T08:00:20;8.67;;;6.53;;
12925;SDS011;6529;50.566;9.774;2024-01-30T08:02:46;8.40;;;6.47;;
12925;SDS011;6529;50.566;9.774;2024-01-30T08:05:12;9.33;;;7.30;;
12925;SDS011;6529;50.566;9.774;2024-01-30T08:07:39;8.37;;;6.50;;
12925;SDS011;6529;50.566;9.774;2024-01-30T08:10:05;10.37;;;7.40;;
12925;SDS011;6529;50.566;9.774;2024-01-30T08:12:31;11.53;;;7.43;;
12925;SDS011;6529;50.566;9.774;2024-01-30T08:14:57;11.07;;;7.13;;
12925;SDS011;6529;50.566;9.774;2024-01-30T08:17:22;8.43;;;6.20;;
12925;SDS011;6529;50.566;9.774;2024-01-30T08:19:48;9.47;;;6.60;;
12925;SDS011;6529;50.566;9.774;2024-01-30T08:22:13;9.93;;;6.43;;
12925;SDS011;6529;50.566;9.774;2024-01-30T08:24:40;8.97;;;6.23;;
12925;SDS011;6529;50.566;9.774;2024-01-30T08:27:06;8.60;;;6.60;;
12925;SDS011;6529;50.566;9.774;2024-01-30T08:29:34;10.93;;;6.47;;
12925;SDS011;6529;50.566;9.774;2024-01-30T08:32:00;11.67;;;8.43;;
12925;SDS011;6529;50.566;9.774;2024-01-30T08:34:26;11.17;;;9.10;;
12925;SDS011;6529;50.566;9.774;2024-01-30T08:36:52;10.30;;;6.77;;
12925;SDS011;6529;50.566;9.774;2024-01-30T08:39:18;10.10;;;7.57;;
12925;SDS011;6529;50.566;9.774;2024-01-30T08:41:44;8.63;;;6.03;;
12925;SDS011;6529;50.566;9.774;2024-01-30T08:44:09;7.67;;;6.20;;
12925;SDS011;6529;50.566;9.774;2024-01-30T08:46:36;9.23;;;6.63;;
12925;SDS011;6529;50.566;9.774;2024-01-30T08:49:02;10.53;;;7.57;;
12925;SDS011;6529;50.566;9.774;2024-01-30T08:51:29;11.97;;;8.00;;
12925;SDS011;6529;50.566;9.774;2024-01-30T08:53:55;10.27;;;7.37;;
12925;SDS011;6529;50.566;9.774;2024-01-30T08:56:21;8.47;;;7.23;;
12925;SDS011;6529;50.566;9.774;2024-01-30T08:58:46;10.30;;;7.37;;
12925;SDS011;6529;50.566;9.774;2024-01-30T09:01:12;10.50;;;7.60;;
12925;SDS011;6529;50.566;9.774;2024-01-30T09:03:38;13.93;;;8.37;;
12925;SDS011;6529;50.566;9.774;2024-01-30T09:06:12;11.90;;;8.53;;
12925;SDS011;6529;50.566;9.774;2024-01-30T09:08:37;10.90;;;8.27;;
12925;SDS011;6529;50.566;9.774;2024-01-30T09:11:11;14.83;;;9.17;;
12925;SDS011;6529;50.566;9.774;2024-01-30T09:13:38;12.80;;;9.50;;
12925;SDS011;6529;50.566;9.774;2024-01-30T09:16:04;12.57;;;9.00;;
12925;SDS011;6529;50.566;9.774;2024-01-30T09:18:30;14.03;;;9.47;;
12925;SDS011;6529;50.566;9.774;2024-01-30T09:20:56;12.10;;;9.03;;
12925;SDS011;6529;50.566;9.774;2024-01-30T09:23:21;11.73;;;8.63;;
12925;SDS011;6529;50.566;9.774;2024-01-30T09:25:47;11.50;;;8.30;;
12925;SDS011;6529;50.566;9.774;2024-01-30T09:28:13;11.67;;;8.27;;
12925;SDS011;6529;50.566;9.774;2024-01-30T09:30:39;12.53;;;9.90;;
12925;SDS011;6529;50.566;9.774;2024-01-30T09:33:04;14.10;;;9.93;;
12925;SDS011;6529;50.566;9.774;2024-01-30T09:35:31;12.47;;;9.03;;
12925;SDS011;6529;50.566;9.774;2024-01-30T09:37:57;12.70;;;8.73;;
12925;SDS011;6529;50.566;9.774;2024-01-30T09:40:22;11.57;;;8.47;;
12925;SDS011;6529;50.566;9.774;2024-01-30T09:42:49;9.77;;;7.77;;
12925;SDS011;6529;50.566;9.774;2024-01-30T09:45:17;11.00;;;7.00;;
12925;SDS011;6529;50.566;9.774;2024-01-30T09:47:44;8.53;;;6.43;;
12925;SDS011;6529;50.566;9.774;2024-01-30T09:50:11;8.53;;;6.37;;
12925;SDS011;6529;50.566;9.774;2024-01-30T09:52:37;8.13;;;5.53;;
12925;SDS011;6529;50.566;9.774;2024-01-30T09:55:04;8.07;;;5.03;;
12925;SDS011;6529;50.566;9.774;2024-01-30T09:57:30;5.70;;;4.50;;
12925;SDS011;6529;50.566;9.774;2024-01-30T09:59:56;5.67;;;4.20;;
12925;SDS011;6529;50.566;9.774;2024-01-30T10:02:22;7.73;;;5.20;;
12925;SDS011;6529;50.566;9.774;2024-01-30T10:04:48;6.97;;;5.13;;
12925;SDS011;6529;50.566;9.774;2024-01-30T10:07:15;6.83;;;4.80;;
12925;SDS011;6529;50.566;9.774;2024-01-30T10:09:44;6.83;;;4.87;;
12925;SDS011;6529;50.566;9.774;2024-01-30T10:12:10;6.00;;;4.77;;
12925;SDS011;6529;50.566;9.774;2024-01-30T10:14:40;6.67;;;4.77;;
12925;SDS011;6529;50.566;9.774;2024-01-30T10:17:07;6.73;;;4.37;;
12925;SDS011;6529;50.566;9.774;2024-01-30T10:19:37;9.50;;;5.90;;
12925;SDS011;6529;50.566;9.774;2024-01-30T10:22:04;9.80;;;4.90;;
12925;SDS011;6529;50.566;9.774;2024-01-30T10:24:30;5.77;;;4.37;;
12925;SDS011;6529;50.566;9.774;2024-01-30T10:26:56;5.93;;;5.00;;
12925;SDS011;6529;50.566;9.774;2024-01-30T10:29:22;7.17;;;5.07;;
12925;SDS011;6529;50.566;9.774;2024-01-30T10:32:00;7.23;;;4.77;;
12925;SDS011;6529;50.566;9.774;2024-01-30T10:34:27;8.77;;;4.80;;
12925;SDS011;6529;50.566;9.774;2024-01-30T10:36:59;9.07;;;5.10;;
12925;SDS011;6529;50.566;9.774;2024-01-30T10:39:34;6.13;;;4.80;;
12925;SDS011;6529;50.566;9.774;2024-01-30T10:42:03;8.80;;;4.80;;
12925;SDS011;6529;50.566;9.774;2024-01-30T10:44:33;5.60;;;4.23;;
12925;SDS011;6529;50.566;9.774;2024-01-30T10:47:03;6.40;;;4.23;;
12925;SDS011;6529;50.566;9.774;2024-01-30T10:49:33;5.77;;;4.40;;
12925;SDS011;6529;50.566;9.774;2024-01-30T10:51:59;7.17;;;4.27;;
12925;SDS011;6529;50.566;9.774;2024-01-30T10:54:25;4.87;;;4.17;;
12925;SDS011;6529;50.566;9.774;2024-01-30T10:56:52;7.03;;;4.27;;
12925;SDS011;6529;50.566;9.774;2024-01-30T10:59:18;5.13;;;4.37;;
12925;SDS011;6529;50.566;9.774;2024-01-30T11:01:45;6.03;;;4.30;;
12925;SDS011;6529;50.566;9.774;2024-01-30T11:04:11;5.77;;;4.23;;
12925;SDS011;6529;50.566;9.774;2024-01-30T11:06:43;7.53;;;4.37;;
12925;SDS011;6529;50.566;9.774;2024-01-30T11:09:10;6.43;;;4.27;;
12925;SDS011;6529;50.566;9.774;2024-01-30T11:14:37;6.40;;;4.07;;
12925;SDS011;6529;50.566;9.774;2024-01-30T11:17:05;5.47;;;4.40;;
12925;SDS011;6529;50.566;9.774;2024-01-30T11:19:31;6.07;;;4.37;;
12925;SDS011;6529;50.566;9.774;2024-01-30T11:21:57;6.00;;;4.20;;
12925;SDS011;6529;50.566;9.774;2024-01-30T11:24:23;5.60;;;4.37;;
12925;SDS011;6529;50.566;9.774;2024-01-30T11:26:49;6.40;;;4.50;;
12925;SDS011;6529;50.566;9.774;2024-01-30T11:29:20;6.57;;;4.40;;
12925;SDS011;6529;50.566;9.774;2024-01-30T11:31:53;5.13;;;4.40;;
12925;SDS011;6529;50.566;9.774;2024-01-30T11:34:20;7.07;;;4.63;;
12925;SDS011;6529;50.566;9.774;2024-01-30T11:36:48;8.10;;;4.37;;
12925;SDS011;6529;50.566;9.774;2024-01-30T11:39:36;5.80;;;4.50;;
12925;SDS011;6529;50.566;9.774;2024-01-30T11:42:02;7.17;;;4.97;;
12925;SDS011;6529;50.566;9.774;2024-01-30T11:44:29;5.50;;;4.80;;
12925;SDS011;6529;50.566;9.774;2024-01-30T11:46:55;7.17;;;4.67;;
12925;SDS011;6529;50.566;9.774;2024-01-30T11:49:21;6.33;;;4.37;;
12925;SDS011;6529;50.566;9.774;2024-01-30T11:51:48;6.00;;;4.30;;
12925;SDS011;6529;50.566;9.774;2024-01-30T11:54:14;6.40;;;4.60;;
12925;SDS011;6529;50.566;9.774;2024-01-30T11:56:41;5.97;;;4.17;;
12925;SDS011;6529;50.566;9.774;2024-01-30T11:59:08;6.70;;;4.37;;
12925;SDS011;6529;50.566;9.774;2024-01-30T12:01:33;5.83;;;4.67;;
12925;SDS011;6529;50.566;9.774;2024-01-30T12:03:59;5.93;;;4.70;;
12925;SDS011;6529;50.566;9.774;2024-01-30T12:06:25;6.43;;;4.60;;
12925;SDS011;6529;50.566;9.774;2024-01-30T12:09:01;5.80;;;4.73;;
12925;SDS011;6529;50.566;9.774;2024-01-30T12:11:33;5.87;;;4.67;;
12925;SDS011;6529;50.566;9.774;2024-01-30T12:14:11;7.50;;;4.70;;
12925;SDS011;6529;50.566;9.774;2024-01-30T12:16:37;5.87;;;4.40;;
12925;SDS011;6529;50.566;9.774;2024-01-30T12:19:02;5.43;;;4.17;;
12925;SDS011;6529;50.566;9.774;2024-01-30T12:21:28;5.70;;;4.70;;
12925;SDS011;6529;50.566;9.774;2024-01-30T12:23:56;8.37;;;4.70;;
12925;SDS011;6529;50.566;9.774;2024-01-30T12:26:23;5.70;;;4.47;;
12925;SDS011;6529;50.566;9.774;2024-01-30T12:28:49;5.63;;;4.60;;
12925;SDS011;6529;50.566;9.774;2024-01-30T12:31:15;6.33;;;4.43;;
12925;SDS011;6529;50.566;9.774;2024-01-30T12:33:41;6.73;;;4.60;;
12925;SDS011;6529;50.566;9.774;2024-01-30T12:36:06;5.40;;;4.23;;
12925;SDS011;6529;50.566;9.774;2024-01-30T12:38:32;6.43;;;4.70;;
12925;SDS011;6529;50.566;9.774;2024-01-30T12:40:58;7.53;;;4.97;;
12925;SDS011;6529;50.566;9.774;2024-01-30T12:43:24;5.97;;;4.60;;
12925;SDS011;6529;50.566;9.774;2024-01-30T12:45:50;6.23;;;4.77;;
12925;SDS011;6529;50.566;9.774;2024-01-30T12:48:17;7.67;;;4.63;;
12925;SDS011;6529;50.566;9.774;2024-01-30T12:50:43;7.80;;;4.67;;
12925;SDS011;6529;50.566;9.774;2024-01-30T12:53:08;6.47;;;4.80;;
12925;SDS011;6529;50.566;9.774;2024-01-30T12:55:34;6.60;;;5.13;;
12925;SDS011;6529;50.566;9.774;2024-01-30T12:58:00;6.57;;;4.73;;
12925;SDS011;6529;50.566;9.774;2024-01-30T13:00:26;7.20;;;4.60;;
12925;SDS011;6529;50.566;9.774;2024-01-30T13:02:51;5.77;;;4.60;;
12925;SDS011;6529;50.566;9.774;2024-01-30T13:05:17;6.87;;;4.83;;
12925;SDS011;6529;50.566;9.774;2024-01-30T13:07:43;6.73;;;4.97;;
12925;SDS011;6529;50.566;9.774;2024-01-30T13:10:08;7.80;;;4.70;;
12925;SDS011;6529;50.566;9.774;2024-01-30T13:12:34;5.33;;;4.47;;
12925;SDS011;6529;50.566;9.774;2024-01-30T13:15:00;6.40;;;4.80;;
12925;SDS011;6529;50.566;9.774;2024-01-30T13:17:26;5.40;;;4.63;;
12925;SDS011;6529;50.566;9.774;2024-01-30T13:19:52;9.87;;;4.63;;
12925;SDS011;6529;50.566;9.774;2024-01-30T13:22:19;6.07;;;4.67;;
12925;SDS011;6529;50.566;9.774;2024-01-30T13:24:46;6.07;;;5.03;;
12925;SDS011;6529;50.566;9.774;2024-01-30T13:27:12;6.57;;;5.03;;
12925;SDS011;6529;50.566;9.774;2024-01-30T13:29:38;6.27;;;4.67;;
12925;SDS011;6529;50.566;9.774;2024-01-30T13:32:04;5.90;;;4.80;;
12925;SDS011;6529;50.566;9.774;2024-01-30T13:34:29;8.30;;;6.17;;
12925;SDS011;6529;50.566;9.774;2024-01-30T13:36:55;5.90;;;4.40;;
12925;SDS011;6529;50.566;9.774;2024-01-30T13:39:21;6.53;;;5.17;;
12925;SDS011;6529;50.566;9.774;2024-01-30T13:41:46;6.07;;;4.73;;
12925;SDS011;6529;50.566;9.774;2024-01-30T13:44:13;7.77;;;5.20;;
12925;SDS011;6529;50.566;9.774;2024-01-30T13:46:39;5.70;;;4.67;;
12925;SDS011;6529;50.566;9.774;2024-01-30T13:49:04;6.97;;;5.23;;
12925;SDS011;6529;50.566;9.774;2024-01-30T13:51:30;7.80;;;5.63;;
12925;SDS011;6529;50.566;9.774;2024-01-30T13:53:56;5.77;;;4.73;;
12925;SDS011;6529;50.566;9.774;2024-01-30T13:56:21;8.57;;;5.53;;
12925;SDS011;6529;50.566;9.774;2024-01-30T13:58:50;6.47;;;5.40;;
12925;SDS011;6529;50.566;9.774;2024-01-30T14:01:16;6.80;;;5.00;;
12925;SDS011;6529;50.566;9.774;2024-01-30T14:03:41;7.37;;;5.03;;
12925;SDS011;6529;50.566;9.774;2024-01-30T14:06:07;6.87;;;5.07;;
12925;SDS011;6529;50.566;9.774;2024-01-30T14:08:33;5.60;;;5.00;;
12925;SDS011;6529;50.566;9.774;2024-01-30T14:10:58;6.10;;;5.30;;
12925;SDS011;6529;50.566;9.774;2024-01-30T14:13:24;7.70;;;5.20;;
12925;SDS011;6529;50.566;9.774;2024-01-30T14:15:50;7.80;;;4.70;;
12925;SDS011;6529;50.566;9.774;2024-01-30T14:18:17;9.00;;;4.97;;
12925;SDS011;6529;50.566;9.774;2024-01-30T14:20:43;8.23;;;5.37;;
12925;SDS011;6529;50.566;9.774;2024-01-30T14:23:08;6.67;;;5.00;;
12925;SDS011;6529;50.566;9.774;2024-01-30T14:25:34;6.77;;;5.00;;
12925;SDS011;6529;50.566;9.774;2024-01-30T14:27:59;6.40;;;4.50;;
12925;SDS011;6529;50.566;9.774;2024-01-30T14:30:25;5.47;;;4.33;;
12925;SDS011;6529;50.566;9.774;2024-01-30T14:32:50;7.60;;;5.30;;
12925;SDS011;6529;50.566;9.774;2024-01-30T14:35:16;5.77;;;4.93;;
12925;SDS011;6529;50.566;9.774;2024-01-30T14:37:41;6.47;;;4.70;;
12925;SDS011;6529;50.566;9.774;2024-01-30T14:40:07;6.40;;;4.70;;
12925;SDS011;6529;50.566;9.774;2024-01-30T14:42:33;6.70;;;5.03;;
12925;SDS011;6529;50.566;9.774;2024-01-30T14:44:59;5.00;;;4.40;;
12925;SDS011;6529;50.566;9.774;2024-01-30T14:47:25;5.63;;;4.93;;
12925;SDS011;6529;50.566;9.774;2024-01-30T14:49:51;7.50;;;5.17;;
12925;SDS011;6529;50.566;9.774;2024-01-30T14:52:17;7.00;;;4.83;;
12925;SDS011;6529;50.566;9.774;2024-01-30T14:54:43;7.07;;;4.80;;
12925;SDS011;6529;50.566;9.774;2024-01-30T14:57:08;6.93;;;5.00;;